Time;durP1;ratioP1;P1;durP2;ratioP2;P2;SDS_P1;SDS_P2;PMS_P1;PMS_P2;Temp;Humidity;BMP_temperature;BMP_pressure;BME280_temperature;BME280_humidity;BME280_pressure;Samples;Min_cycle;Max_cycle;Signal;HPM_P1;HPM_P2
2021/01/13 00:02:20;;;;;;;7.20;2.83;;;;;;;;;;5071997;28;20600;-43
2021/01/13 00:04:45;;;;;;;2.87;2.57;;;;;;;;;;5072417;28;20693;-42
2021/01/13 00:07:12;;;;;;;2.72;2.50;;;;;;;;;;5072147;28;20174;-43
2021/01/13 00:09:37;;;;;;;6.83;2.50;;;;;;;;;;5070473;28;20198;-42
2021/01/13 00:12:02;;;;;;;5.45;2.35;;;;;;;;;;5067980;28;20603;-43
2021/01/13 00:14:28;;;;;;;2.67;2.00;;;;;;;;;;5067879;28;20423;-43
2021/01/13 00:16:53;;;;;;;4.93;2.30;;;;;;;;;;5070217;28;20210;-43
2021/01/13 00:19:18;;;;;;;3.33;2.35;;;;;;;;;;5072079;28;20171;-43
2021/01/13 00:21:48;;;;;;;3.90;2.50;;;;;;;;;;5069697;28;20187;-43
2021/01/13 00:24:13;;;;;;;3.50;2.20;;;;;;;;;;5071564;28;20614;-43
2021/01/13 00:26:38;;;;;;;2.53;2.30;;;;;;;;;;5072011;28;20677;-43
2021/01/13 00:29:03;;;;;;;4.07;2.60;;;;;;;;;;5066332;28;20628;-43
2021/01/13 00:31:28;;;;;;;3.85;2.53;;;;;;;;;;5070777;28;20203;-43
2021/01/13 00:33:53;;;;;;;2.80;2.10;;;;;;;;;;5071672;28;20320;-43
2021/01/13 00:36:20;;;;;;;4.97;2.10;;;;;;;;;;5070958;28;20197;-43
2021/01/13 00:38:45;;;;;;;6.40;2.37;;;;;;;;;;5072067;28;20201;-43
2021/01/13 00:41:11;;;;;;;7.75;2.58;;;;;;;;;;5069596;28;20625;-43
2021/01/13 00:43:36;;;;;;;6.67;1.93;;;;;;;;;;5072505;28;20230;-44
2021/01/13 00:46:01;;;;;;;2.25;2.05;;;;;;;;;;5071750;28;20171;-43
2021/01/13 00:48:26;;;;;;;5.68;1.80;;;;;;;;;;5071335;28;20550;-43
2021/01/13 00:50:52;;;;;;;4.47;1.98;;;;;;;;;;5070079;28;20190;-43
2021/01/13 00:53:17;;;;;;;7.45;2.42;;;;;;;;;;5072217;28;20209;-43
2021/01/13 00:55:42;;;;;;;2.58;2.35;;;;;;;;;;5071369;28;20668;-43
2021/01/13 00:58:07;;;;;;;1.97;1.77;;;;;;;;;;5071537;28;20179;-44
2021/01/13 01:00:32;;;;;;;4.35;1.98;;;;;;;;;;5069003;28;20186;-43
2021/01/13 01:02:57;;;;;;;2.17;1.98;;;;;;;;;;5072257;28;20192;-43
2021/01/13 01:05:23;;;;;;;2.75;1.50;;;;;;;;;;5071043;28;20211;-43
2021/01/13 01:07:48;;;;;;;3.50;1.60;;;;;;;;;;5071179;28;20194;-43
2021/01/13 01:10:17;;;;;;;3.53;1.80;;;;;;;;;;5059784;28;20644;-43
2021/01/13 01:12:42;;;;;;;3.10;1.70;;;;;;;;;;5071145;28;20194;-43
2021/01/13 01:15:07;;;;;;;4.20;2.63;;;;;;;;;;5072346;28;20643;-43
2021/01/13 01:17:33;;;;;;;7.93;2.23;;;;;;;;;;5070305;28;20303;-43
2021/01/13 01:19:58;;;;;;;2.17;1.95;;;;;;;;;;5068913;28;20696;-43
2021/01/13 01:22:23;;;;;;;2.95;2.05;;;;;;;;;;5070671;28;20175;-43
2021/01/13 01:24:48;;;;;;;5.63;2.20;;;;;;;;;;5065367;28;20193;-43
2021/01/13 01:27:13;;;;;;;2.22;2.03;;;;;;;;;;5067636;28;20201;-43
2021/01/13 01:29:38;;;;;;;8.88;2.28;;;;;;;;;;5070516;28;20175;-43
2021/01/13 01:32:03;;;;;;;9.20;2.65;;;;;;;;;;5068851;28;20176;-43
2021/01/13 01:34:29;;;;;;;6.67;1.97;;;;;;;;;;5071154;28;20193;-43
2021/01/13 01:36:54;;;;;;;1.87;1.63;;;;;;;;;;5071964;28;20599;-43
2021/01/13 01:39:20;;;;;;;8.83;2.30;;;;;;;;;;5070643;28;20262;-43
2021/01/13 01:41:45;;;;;;;5.03;2.45;;;;;;;;;;5068782;28;20642;-43
2021/01/13 01:44:10;;;;;;;5.03;1.92;;;;;;;;;;5070233;28;20179;-43
2021/01/13 01:46:38;;;;;;;10.10;2.50;;;;;;;;;;5070085;28;20208;-43
2021/01/13 01:49:03;;;;;;;3.07;2.00;;;;;;;;;;5070480;28;20186;-43
2021/01/13 01:51:45;;;;;;;4.43;2.30;;;;;;;;;;5068306;28;20603;-43
2021/01/13 01:54:10;;;;;;;6.83;2.13;;;;;;;;;;5052543;28;20178;-43
2021/01/13 01:56:36;;;;;;;3.70;2.35;;;;;;;;;;5071735;28;20746;-42
2021/01/13 01:59:03;;;;;;;3.97;2.00;;;;;;;;;;5069607;28;20598;-43
2021/01/13 02:01:30;;;;;;;3.20;2.07;;;;;;;;;;5060667;28;20683;-43
2021/01/13 02:04:03;;;;;;;2.13;1.93;;;;;;;;;;5069877;28;20590;-42
2021/01/13 02:06:30;;;;;;;5.20;2.20;;;;;;;;;;5055634;28;20601;-44
2021/01/13 02:08:56;;;;;;;4.23;2.10;;;;;;;;;;5076614;28;20598;-43
2021/01/13 02:11:23;;;;;;;3.87;1.97;;;;;;;;;;5067645;28;20649;-43
2021/01/13 02:13:48;;;;;;;2.60;2.37;;;;;;;;;;5069915;28;20226;-43
2021/01/13 02:16:15;;;;;;;7.20;2.43;;;;;;;;;;5069925;28;21024;-43
2021/01/13 02:18:41;;;;;;;7.73;2.73;;;;;;;;;;5071178;28;20182;-43
2021/01/13 02:21:11;;;;;;;5.10;1.70;;;;;;;;;;5067658;28;20599;-43
2021/01/13 02:23:43;;;;;;;5.87;2.30;;;;;;;;;;5067886;28;20182;-43
2021/01/13 02:26:27;;;;;;;3.70;2.17;;;;;;;;;;5069428;28;20613;-43
2021/01/13 02:29:02;;;;;;;5.50;2.90;;;;;;;;;;5067017;28;21218;-44
2021/01/13 02:31:29;;;;;;;7.33;2.50;;;;;;;;;;5059595;28;20710;-44
2021/01/13 02:33:57;;;;;;;8.70;2.00;;;;;;;;;;5069563;28;20631;-44
2021/01/13 02:36:43;;;;;;;2.63;1.63;;;;;;;;;;5069460;28;20637;-43
2021/01/13 02:39:08;;;;;;;4.70;2.03;;;;;;;;;;5065831;28;20625;-42
2021/01/13 02:41:42;;;;;;;6.30;1.87;;;;;;;;;;5052596;28;20598;-41
2021/01/13 02:44:09;;;;;;;6.23;2.03;;;;;;;;;;5067527;28;20185;-43
2021/01/13 02:46:48;;;;;;;4.87;2.30;;;;;;;;;;5069653;28;20654;-42
2021/01/13 02:49:18;;;;;;;4.17;1.93;;;;;;;;;;5070430;28;20969;-43
2021/01/13 02:51:47;;;;;;;4.70;2.40;;;;;;;;;;5063838;28;20601;-42
2021/01/13 02:54:24;;;;;;;5.20;2.30;;;;;;;;;;5069366;28;20605;-43
2021/01/13 02:56:51;;;;;;;1.70;1.60;;;;;;;;;;5056779;28;20751;-43
2021/01/13 02:59:17;;;;;;;3.30;2.03;;;;;;;;;;5066474;28;20608;-43
2021/01/13 03:01:43;;;;;;;3.87;2.20;;;;;;;;;;5067475;28;20703;-43
2021/01/13 03:04:08;;;;;;;10.40;2.67;;;;;;;;;;5067184;28;20178;-43
2021/01/13 03:06:35;;;;;;;2.80;2.10;;;;;;;;;;5069435;28;20706;-43
2021/01/13 03:09:05;;;;;;;3.70;2.37;;;;;;;;;;5069530;28;20187;-42
2021/01/13 03:11:30;;;;;;;9.50;2.40;;;;;;;;;;5068141;28;20671;-42
2021/01/13 03:14:06;;;;;;;6.47;2.70;;;;;;;;;;5068970;28;21007;-42
2021/01/13 03:16:33;;;;;;;9.53;2.37;;;;;;;;;;5062294;28;20197;-43
2021/01/13 03:19:02;;;;;;;3.93;2.17;;;;;;;;;;5069574;28;21145;-43
2021/01/13 03:21:33;;;;;;;4.23;2.20;;;;;;;;;;5070244;28;20654;-43
2021/01/13 03:24:04;;;;;;;5.37;1.80;;;;;;;;;;5067730;28;20597;-43
2021/01/13 03:26:30;;;;;;;7.03;2.67;;;;;;;;;;5069175;28;20596;-42
2021/01/13 03:28:57;;;;;;;9.27;2.83;;;;;;;;;;5068532;28;20604;-43
2021/01/13 03:31:28;;;;;;;4.83;1.80;;;;;;;;;;5068525;28;20623;-43
2021/01/13 03:34:10;;;;;;;5.80;2.13;;;;;;;;;;5068418;28;21212;-43
2021/01/13 03:36:52;;;;;;;5.50;2.10;;;;;;;;;;5069200;28;20701;-43
2021/01/13 03:39:20;;;;;;;5.00;2.20;;;;;;;;;;5069002;28;20598;-43
2021/01/13 03:41:54;;;;;;;4.30;2.70;;;;;;;;;;5069796;28;20588;-44
2021/01/13 03:44:29;;;;;;;8.00;2.50;;;;;;;;;;5066927;28;21176;-43
2021/01/13 03:46:55;;;;;;;3.70;2.10;;;;;;;;;;5072793;28;20969;-43
2021/01/13 03:49:25;;;;;;;5.90;2.27;;;;;;;;;;5072032;28;20607;-43
2021/01/13 03:52:00;;;;;;;5.30;2.30;;;;;;;;;;5072506;28;20190;-43
2021/01/13 03:54:27;;;;;;;5.00;1.80;;;;;;;;;;5072165;28;21224;-44
2021/01/13 03:57:00;;;;;;;3.33;2.60;;;;;;;;;;5072533;28;20655;-43
2021/01/13 03:59:48;;;;;;;8.30;2.50;;;;;;;;;;5071502;28;20637;-43
2021/01/13 04:02:16;;;;;;;5.60;2.57;;;;;;;;;;5059905;28;20653;-43
2021/01/13 04:04:46;;;;;;;3.57;2.20;;;;;;;;;;5074077;28;20652;-43
2021/01/13 04:07:12;;;;;;;8.03;2.60;;;;;;;;;;5072552;28;21159;-43
2021/01/13 04:09:38;;;;;;;5.30;1.73;;;;;;;;;;5072477;28;20607;-44
2021/01/13 04:12:07;;;;;;;4.00;2.90;;;;;;;;;;5070091;28;20961;-43
2021/01/13 04:14:45;;;;;;;5.43;2.40;;;;;;;;;;5072570;28;20595;-44
2021/01/13 04:17:11;;;;;;;4.93;2.30;;;;;;;;;;5071943;28;20652;-43
2021/01/13 04:19:36;;;;;;;5.13;2.87;;;;;;;;;;5071658;28;20604;-43
2021/01/13 04:22:03;;;;;;;4.60;2.23;;;;;;;;;;5068093;28;20593;-43
2021/01/13 04:24:28;;;;;;;6.90;3.07;;;;;;;;;;5072120;28;20730;-43
2021/01/13 04:26:53;;;;;;;6.63;2.30;;;;;;;;;;5071882;28;20715;-43
2021/01/13 04:29:18;;;;;;;5.33;2.33;;;;;;;;;;5071540;28;20179;-43
2021/01/13 04:31:43;;;;;;;6.40;2.83;;;;;;;;;;5069685;28;20177;-43
2021/01/13 04:34:09;;;;;;;4.77;2.50;;;;;;;;;;5070847;28;20205;-43
2021/01/13 04:36:35;;;;;;;3.30;2.43;;;;;;;;;;5072197;28;20572;-43
2021/01/13 04:39:01;;;;;;;5.97;2.57;;;;;;;;;;5068649;28;20664;-43
2021/01/13 04:41:29;;;;;;;9.07;3.17;;;;;;;;;;5066536;28;20605;-43
2021/01/13 04:43:54;;;;;;;3.80;2.50;;;;;;;;;;5067903;28;20602;-43
2021/01/13 04:46:28;;;;;;;7.30;2.73;;;;;;;;;;5068510;28;20659;-43
2021/01/13 04:49:15;;;;;;;7.47;2.47;;;;;;;;;;5066206;28;20201;-43
2021/01/13 04:51:41;;;;;;;4.57;2.27;;;;;;;;;;5066183;28;20635;-42
2021/01/13 04:54:11;;;;;;;4.90;2.17;;;;;;;;;;5067309;28;21021;-43
2021/01/13 04:56:59;;;;;;;2.77;2.30;;;;;;;;;;5064997;28;20710;-43
2021/01/13 04:59:34;;;;;;;2.17;1.97;;;;;;;;;;5018387;28;20715;-43
2021/01/13 05:02:06;;;;;;;5.13;3.10;;;;;;;;;;5066274;28;20608;-43
2021/01/13 05:04:50;;;;;;;7.80;2.67;;;;;;;;;;5065402;28;20611;-42
2021/01/13 05:07:30;;;;;;;6.73;2.33;;;;;;;;;;5067225;28;20596;-43
2021/01/13 05:10:08;;;;;;;5.30;2.57;;;;;;;;;;5067569;28;20616;-43
2021/01/13 05:12:50;;;;;;;4.47;2.60;;;;;;;;;;5060252;28;20648;-42
2021/01/13 05:15:17;;;;;;;4.03;2.60;;;;;;;;;;5067639;28;20722;-43
2021/01/13 05:18:02;;;;;;;7.43;2.60;;;;;;;;;;5067214;28;21438;-43
2021/01/13 05:20:32;;;;;;;7.60;3.10;;;;;;;;;;5067056;28;20609;-43
2021/01/13 05:22:58;;;;;;;7.60;2.83;;;;;;;;;;5063211;28;20603;-43
2021/01/13 05:25:44;;;;;;;4.17;2.67;;;;;;;;;;5064693;28;21081;-43
2021/01/13 05:28:10;;;;;;;8.00;3.00;;;;;;;;;;5066976;28;21245;-43
2021/01/13 05:30:37;;;;;;;5.00;2.80;;;;;;;;;;5066869;28;20706;-43
2021/01/13 05:33:21;;;;;;;7.10;3.20;;;;;;;;;;5064679;28;20606;-43
2021/01/13 05:35:47;;;;;;;12.23;3.17;;;;;;;;;;5065963;28;20676;-42
2021/01/13 05:38:17;;;;;;;7.17;2.30;;;;;;;;;;5067137;28;21020;-43
2021/01/13 05:40:43;;;;;;;5.90;2.63;;;;;;;;;;5064938;28;20635;-43
2021/01/13 05:43:08;;;;;;;8.90;3.03;;;;;;;;;;5071082;28;21182;-43
2021/01/13 05:45:38;;;;;;;4.93;2.70;;;;;;;;;;5067319;28;20600;-43
2021/01/13 05:48:11;;;;;;;9.50;2.80;;;;;;;;;;5066866;28;20198;-43
2021/01/13 05:50:36;;;;;;;3.83;2.67;;;;;;;;;;5058963;28;20601;-43
2021/01/13 05:53:05;;;;;;;5.83;2.97;;;;;;;;;;5063728;28;20940;-43
2021/01/13 05:55:31;;;;;;;5.67;2.80;;;;;;;;;;5060598;28;20238;-43
2021/01/13 05:57:57;;;;;;;6.63;3.47;;;;;;;;;;5068554;28;20648;-44
2021/01/13 06:00:23;;;;;;;6.83;3.00;;;;;;;;;;5064275;28;20190;-43
2021/01/13 06:02:49;;;;;;;8.50;3.37;;;;;;;;;;5064300;28;20998;-43
2021/01/13 06:05:14;;;;;;;6.33;3.80;;;;;;;;;;5062678;28;20655;-43
2021/01/13 06:07:44;;;;;;;6.70;3.17;;;;;;;;;;5066114;28;20568;-44
2021/01/13 06:10:11;;;;;;;3.10;2.50;;;;;;;;;;5065600;28;20240;-44
2021/01/13 06:12:39;;;;;;;4.63;2.70;;;;;;;;;;5063099;28;20987;-44
2021/01/13 06:15:07;;;;;;;4.10;2.93;;;;;;;;;;5064784;28;20643;-44
2021/01/13 06:17:33;;;;;;;6.70;3.60;;;;;;;;;;5048158;28;20669;-43
2021/01/13 06:19:58;;;;;;;3.23;2.47;;;;;;;;;;5068006;28;20950;-43
2021/01/13 06:22:31;;;;;;;7.63;3.50;;;;;;;;;;5060529;28;20192;-43
2021/01/13 06:24:59;;;;;;;5.67;3.40;;;;;;;;;;5061275;28;20673;-42
2021/01/13 06:27:34;;;;;;;5.13;3.17;;;;;;;;;;5065753;28;20615;-43
2021/01/13 06:30:01;;;;;;;7.90;3.40;;;;;;;;;;5067157;28;20625;-43
2021/01/13 06:32:30;;;;;;;5.80;3.00;;;;;;;;;;5063212;28;20586;-43
2021/01/13 06:35:03;;;;;;;3.97;2.60;;;;;;;;;;5067222;28;20608;-42
2021/01/13 06:37:45;;;;;;;4.60;2.77;;;;;;;;;;5066698;28;20647;-43
2021/01/13 06:40:12;;;;;;;5.40;2.93;;;;;;;;;;5057820;28;20597;-43
2021/01/13 06:42:37;;;;;;;4.17;2.53;;;;;;;;;;5063989;28;20597;-43
2021/01/13 06:45:03;;;;;;;6.50;3.33;;;;;;;;;;5065597;28;20604;-43
2021/01/13 06:47:28;;;;;;;6.20;3.30;;;;;;;;;;5063725;28;20182;-43
2021/01/13 06:49:53;;;;;;;5.30;3.45;;;;;;;;;;5066020;28;20179;-43
2021/01/13 06:52:29;;;;;;;4.77;2.70;;;;;;;;;;5066203;28;20631;-42
2021/01/13 06:54:56;;;;;;;6.00;3.13;;;;;;;;;;5066452;28;21042;-43
2021/01/13 06:57:28;;;;;;;4.90;3.53;;;;;;;;;;5060838;28;20643;-43
2021/01/13 06:59:53;;;;;;;7.20;2.70;;;;;;;;;;5059536;28;20617;-43
2021/01/13 07:02:28;;;;;;;5.30;2.77;;;;;;;;;;5062801;28;20585;-43
2021/01/13 07:04:53;;;;;;;3.90;2.70;;;;;;;;;;5062998;28;20199;-43
2021/01/13 07:07:18;;;;;;;5.13;3.47;;;;;;;;;;5068217;28;20612;-43
2021/01/13 07:09:45;;;;;;;5.15;3.42;;;;;;;;;;5063310;28;20278;-43
2021/01/13 07:12:13;;;;;;;6.10;3.00;;;;;;;;;;5068329;28;20186;-43
2021/01/13 07:14:41;;;;;;;6.90;3.27;;;;;;;;;;5069032;28;20652;-43
2021/01/13 07:17:07;;;;;;;4.70;3.17;;;;;;;;;;5070374;28;20645;-42
2021/01/13 07:19:34;;;;;;;5.53;2.90;;;;;;;;;;5072172;28;20584;-43
2021/01/13 07:21:59;;;;;;;10.70;3.23;;;;;;;;;;5073817;28;20585;-43
2021/01/13 07:24:27;;;;;;;5.33;3.00;;;;;;;;;;5069796;28;20616;-43
2021/01/13 07:26:52;;;;;;;6.50;3.17;;;;;;;;;;5073601;28;20174;-43
2021/01/13 07:29:18;;;;;;;4.87;2.60;;;;;;;;;;5074109;28;20643;-43
2021/01/13 07:31:45;;;;;;;4.00;2.63;;;;;;;;;;5070594;28;20676;-43
2021/01/13 07:34:14;;;;;;;6.10;2.67;;;;;;;;;;5067980;28;20175;-42
2021/01/13 07:36:40;;;;;;;5.27;2.97;;;;;;;;;;5073419;28;20633;-42
2021/01/13 07:39:06;;;;;;;4.10;2.77;;;;;;;;;;5073129;28;20700;-42
2021/01/13 07:41:56;;;;;;;6.50;2.93;;;;;;;;;;5073639;28;21067;-42
2021/01/13 07:44:37;;;;;;;5.73;3.40;;;;;;;;;;5069760;28;20620;-44
2021/01/13 07:47:02;;;;;;;4.90;3.10;;;;;;;;;;5073694;28;20619;-43
2021/01/13 07:49:40;;;;;;;3.00;2.77;;;;;;;;;;5069706;28;20604;-43
2021/01/13 07:52:07;;;;;;;3.47;2.50;;;;;;;;;;5073948;28;20172;-42
2021/01/13 07:54:34;;;;;;;4.07;2.67;;;;;;;;;;5069735;28;20615;-43
2021/01/13 07:57:00;;;;;;;5.10;2.83;;;;;;;;;;5072575;28;21563;-43
2021/01/13 07:59:41;;;;;;;6.70;3.30;;;;;;;;;;5072338;28;20685;-43
2021/01/13 08:02:15;;;;;;;4.50;3.40;;;;;;;;;;5073719;28;21237;-44
2021/01/13 08:04:55;;;;;;;6.70;3.57;;;;;;;;;;5068051;28;20600;-43
2021/01/13 08:07:31;;;;;;;7.53;2.97;;;;;;;;;;5065097;28;20966;-43
2021/01/13 08:09:57;;;;;;;6.53;3.63;;;;;;;;;;5073099;28;20606;-43
2021/01/13 08:12:41;;;;;;;8.03;3.30;;;;;;;;;;5074299;28;20657;-43
2021/01/13 08:15:16;;;;;;;6.53;3.27;;;;;;;;;;5070828;28;20605;-43
2021/01/13 08:18:12;;;;;;;4.80;2.57;;;;;;;;;;5072102;28;20635;-43
2021/01/13 08:21:00;;;;;;;5.27;2.50;;;;;;;;;;5072597;28;20617;-43
2021/01/13 08:23:32;;;;;;;4.07;2.97;;;;;;;;;;5071358;28;21013;-43
2021/01/13 08:25:59;;;;;;;4.47;3.10;;;;;;;;;;5059793;28;20631;-43
2021/01/13 08:28:24;;;;;;;4.20;2.80;;;;;;;;;;5069300;28;20607;-43
2021/01/13 08:30:50;;;;;;;7.27;2.90;;;;;;;;;;5071603;28;20600;-43
2021/01/13 08:33:19;;;;;;;5.33;2.87;;;;;;;;;;5071000;28;20171;-43
2021/01/13 08:35:46;;;;;;;6.50;3.17;;;;;;;;;;5070288;28;20590;-43
2021/01/13 08:38:11;;;;;;;6.50;3.13;;;;;;;;;;5072169;28;20655;-44
2021/01/13 08:40:37;;;;;;;5.60;3.00;;;;;;;;;;5067424;28;20687;-44
2021/01/13 08:43:06;;;;;;;6.23;3.10;;;;;;;;;;5070233;28;20674;-44
2021/01/13 08:45:35;;;;;;;3.77;2.40;;;;;;;;;;5056950;28;20669;-44
2021/01/13 08:48:08;;;;;;;4.70;2.40;;;;;;;;;;5044817;28;20636;-43
2021/01/13 08:50:33;;;;;;;4.77;2.60;;;;;;;;;;5070999;28;20676;-44
2021/01/13 08:53:01;;;;;;;8.77;3.20;;;;;;;;;;5069979;28;20606;-43
2021/01/13 08:55:26;;;;;;;5.00;3.07;;;;;;;;;;5071535;28;20231;-43
2021/01/13 08:57:52;;;;;;;5.50;2.50;;;;;;;;;;5070879;28;20661;-43
2021/01/13 09:00:18;;;;;;;7.57;2.57;;;;;;;;;;5071649;28;20172;-43
2021/01/13 09:02:51;;;;;;;4.67;2.63;;;;;;;;;;5071395;28;21183;-43
2021/01/13 09:05:26;;;;;;;4.67;2.07;;;;;;;;;;5070487;28;20175;-43
2021/01/13 09:07:53;;;;;;;5.97;2.77;;;;;;;;;;5070689;28;20597;-43
2021/01/13 09:10:18;;;;;;;5.50;3.10;;;;;;;;;;5069773;28;20625;-43
2021/01/13 09:12:44;;;;;;;4.97;3.10;;;;;;;;;;5070459;28;20642;-43
2021/01/13 09:15:14;;;;;;;4.87;2.60;;;;;;;;;;5071259;28;20179;-43
2021/01/13 09:17:43;;;;;;;4.73;2.40;;;;;;;;;;5070523;28;20632;-43
2021/01/13 09:20:11;;;;;;;6.27;2.37;;;;;;;;;;5070813;28;20683;-43
2021/01/13 09:22:43;;;;;;;6.23;2.57;;;;;;;;;;5064955;28;20637;-43
2021/01/13 09:25:18;;;;;;;3.37;2.70;;;;;;;;;;5068443;28;20632;-43
2021/01/13 09:27:44;;;;;;;6.23;2.63;;;;;;;;;;5063656;28;20597;-43
2021/01/13 09:30:20;;;;;;;6.07;2.50;;;;;;;;;;5075085;28;20750;-43
2021/01/13 09:32:52;;;;;;;9.00;2.90;;;;;;;;;;5068670;28;20603;-43
2021/01/13 09:35:28;;;;;;;6.50;3.27;;;;;;;;;;5068691;28;21169;-43
2021/01/13 09:37:54;;;;;;;7.13;3.00;;;;;;;;;;5070148;28;21036;-43
2021/01/13 09:40:21;;;;;;;6.20;2.63;;;;;;;;;;5069996;28;20590;-43
2021/01/13 09:42:50;;;;;;;4.93;2.60;;;;;;;;;;5068302;28;20616;-43
2021/01/13 09:45:15;;;;;;;7.10;3.00;;;;;;;;;;5066077;28;20616;-43
2021/01/13 09:47:40;;;;;;;6.90;2.73;;;;;;;;;;5067359;28;20606;-43
2021/01/13 09:50:07;;;;;;;4.00;2.63;;;;;;;;;;5069532;28;20230;-43
2021/01/13 09:52:48;;;;;;;3.80;2.37;;;;;;;;;;5069807;28;20179;-43
2021/01/13 09:55:14;;;;;;;7.43;2.47;;;;;;;;;;5068857;28;21151;-43
2021/01/13 09:57:39;;;;;;;8.30;2.50;;;;;;;;;;5070343;28;20718;-43
2021/01/13 10:00:04;;;;;;;3.13;2.27;;;;;;;;;;5068457;28;20237;-43
2021/01/13 10:02:30;;;;;;;2.50;2.30;;;;;;;;;;5070209;28;20272;-43
2021/01/13 10:04:56;;;;;;;5.13;2.90;;;;;;;;;;5069711;28;20186;-43
2021/01/13 10:07:21;;;;;;;4.60;2.83;;;;;;;;;;5070803;28;20239;-42
2021/01/13 10:09:48;;;;;;;4.63;2.67;;;;;;;;;;5070240;28;20175;-42
2021/01/13 10:12:13;;;;;;;4.93;2.63;;;;;;;;;;5070615;28;20179;-43
2021/01/13 10:14:41;;;;;;;6.67;3.10;;;;;;;;;;5069346;28;21100;-43
2021/01/13 10:17:07;;;;;;;4.50;2.93;;;;;;;;;;5070115;28;20685;-43
2021/01/13 10:19:33;;;;;;;6.40;3.30;;;;;;;;;;5070408;28;20611;-43
2021/01/13 10:22:01;;;;;;;7.37;3.17;;;;;;;;;;5070504;28;20576;-43
2021/01/13 10:24:29;;;;;;;7.43;5.37;;;;;;;;;;5068486;28;20732;-43
2021/01/13 10:26:59;;;;;;;7.77;5.13;;;;;;;;;;5070852;28;21200;-43
2021/01/13 10:29:24;;;;;;;9.07;4.60;;;;;;;;;;5070494;28;20584;-43
2021/01/13 10:31:50;;;;;;;25.03;13.10;;;;;;;;;;5070209;28;20577;-43
2021/01/13 10:34:15;;;;;;;7.67;4.27;;;;;;;;;;5068254;28;20629;-43
2021/01/13 10:36:40;;;;;;;15.10;8.60;;;;;;;;;;5070949;28;20268;-42
2021/01/13 10:39:15;;;;;;;14.27;6.40;;;;;;;;;;5070494;28;20691;-43
2021/01/13 10:41:41;;;;;;;6.63;3.33;;;;;;;;;;5069966;28;20194;-43
2021/01/13 10:44:06;;;;;;;6.60;3.67;;;;;;;;;;5068130;28;20583;-43
2021/01/13 10:46:44;;;;;;;4.40;4.00;;;;;;;;;;5071212;28;20671;-43
2021/01/13 10:49:19;;;;;;;6.10;3.30;;;;;;;;;;5070311;28;20269;-43
2021/01/13 10:51:49;;;;;;;4.10;2.50;;;;;;;;;;5068761;28;20604;-43
2021/01/13 10:54:16;;;;;;;6.43;4.03;;;;;;;;;;5067974;28;20577;-43
2021/01/13 10:56:41;;;;;;;7.93;3.27;;;;;;;;;;5068704;28;20643;-43
2021/01/13 10:59:13;;;;;;;5.70;3.60;;;;;;;;;;5065742;28;20980;-43
2021/01/13 11:01:39;;;;;;;8.43;4.10;;;;;;;;;;5069060;28;20224;-43
2021/01/13 11:04:04;;;;;;;5.40;3.20;;;;;;;;;;5060319;28;21179;-43
2021/01/13 11:06:29;;;;;;;5.40;3.07;;;;;;;;;;5067698;28;20183;-43
2021/01/13 11:08:56;;;;;;;4.47;3.23;;;;;;;;;;5067128;28;20261;-43
2021/01/13 11:11:21;;;;;;;4.27;3.03;;;;;;;;;;5065034;28;20214;-43
2021/01/13 11:13:47;;;;;;;4.10;3.03;;;;;;;;;;5064305;28;20703;-43
2021/01/13 11:16:13;;;;;;;9.07;3.87;;;;;;;;;;5067597;28;20256;-43
2021/01/13 11:18:39;;;;;;;12.30;5.80;;;;;;;;;;5068069;28;21038;-43
2021/01/13 11:21:07;;;;;;;14.20;4.23;;;;;;;;;;5067222;28;20594;-42
2021/01/13 11:23:40;;;;;;;6.77;3.30;;;;;;;;;;5067368;28;20601;-43
2021/01/13 11:26:06;;;;;;;7.50;3.60;;;;;;;;;;5066352;28;20602;-43
2021/01/13 11:28:31;;;;;;;6.80;3.73;;;;;;;;;;5067464;28;20609;-43
2021/01/13 11:30:56;;;;;;;5.27;3.30;;;;;;;;;;5068951;28;20213;-43
2021/01/13 11:33:23;;;;;;;4.00;3.20;;;;;;;;;;5069879;28;20857;-43
2021/01/13 11:35:49;;;;;;;3.43;3.13;;;;;;;;;;5067353;28;20175;-43
2021/01/13 11:38:33;;;;;;;5.97;4.07;;;;;;;;;;5074307;28;20660;-44
2021/01/13 11:41:14;;;;;;;6.50;4.27;;;;;;;;;;5049759;28;20658;-43
2021/01/13 11:43:54;;;;;;;3.63;3.10;;;;;;;;;;5058737;28;21004;-43
2021/01/13 11:46:27;;;;;;;6.23;3.43;;;;;;;;;;5064328;28;20596;-43
2021/01/13 11:49:08;;;;;;;4.93;3.90;;;;;;;;;;5051031;28;20605;-43
2021/01/13 11:51:37;;;;;;;5.20;3.57;;;;;;;;;;5062490;28;20598;-43
2021/01/13 11:54:02;;;;;;;5.07;3.37;;;;;;;;;;5068980;28;20575;-43
2021/01/13 11:56:31;;;;;;;3.73;3.40;;;;;;;;;;5065875;28;20651;-43
2021/01/13 11:58:57;;;;;;;6.40;3.60;;;;;;;;;;5067061;28;20179;-43
2021/01/13 12:01:26;;;;;;;7.57;3.70;;;;;;;;;;5066645;28;20726;-43
2021/01/13 12:03:58;;;;;;;4.63;3.57;;;;;;;;;;5070848;28;20171;-43
2021/01/13 12:06:23;;;;;;;5.37;4.03;;;;;;;;;;5071092;28;20590;-43
2021/01/13 12:08:48;;;;;;;7.32;4.15;;;;;;;;;;5073021;28;20664;-43
2021/01/13 12:11:13;;;;;;;9.18;4.35;;;;;;;;;;5078828;28;20178;-43
2021/01/13 12:13:42;;;;;;;5.15;4.45;;;;;;;;;;5071467;28;20258;-43
2021/01/13 12:16:13;;;;;;;6.07;3.83;;;;;;;;;;5070332;28;20629;-43
2021/01/13 12:18:49;;;;;;;6.10;4.37;;;;;;;;;;5072620;28;20593;-43
2021/01/13 12:21:14;;;;;;;4.20;3.80;;;;;;;;;;5073296;28;20619;-43
2021/01/13 12:23:40;;;;;;;8.38;4.07;;;;;;;;;;5072703;28;20672;-43
2021/01/13 12:26:17;;;;;;;4.00;3.70;;;;;;;;;;5070321;28;20165;-43
2021/01/13 12:28:43;;;;;;;6.87;4.07;;;;;;;;;;5058254;28;20591;-43
2021/01/13 12:31:08;;;;;;;7.90;4.43;;;;;;;;;;5067859;28;20616;-43
2021/01/13 12:33:37;;;;;;;5.53;4.60;;;;;;;;;;5052606;28;20661;-43
2021/01/13 12:36:14;;;;;;;7.47;5.70;;;;;;;;;;5058057;28;20392;-43
2021/01/13 12:38:41;;;;;;;8.60;6.43;;;;;;;;;;5072424;28;20599;-43
2021/01/13 12:41:06;;;;;;;9.60;8.60;;;;;;;;;;5071191;28;20594;-43
2021/01/13 12:43:36;;;;;;;6.80;4.40;;;;;;;;;;5082271;28;20609;-43
2021/01/13 12:46:01;;;;;;;8.80;6.20;;;;;;;;;;5067894;28;20214;-43
2021/01/13 12:48:26;;;;;;;8.23;6.60;;;;;;;;;;5070904;28;20629;-44
2021/01/13 12:50:51;;;;;;;3.45;3.15;;;;;;;;;;5069861;28;20178;-43
2021/01/13 12:53:16;;;;;;;5.80;3.80;;;;;;;;;;5072124;28;20168;-43
2021/01/13 12:55:41;;;;;;;7.50;4.85;;;;;;;;;;5070292;28;20205;-43
2021/01/13 12:58:08;;;;;;;8.30;4.70;;;;;;;;;;5076276;28;20257;-44
2021/01/13 13:00:33;;;;;;;5.57;5.07;;;;;;;;;;5071620;28;20588;-44
2021/01/13 13:02:58;;;;;;;5.27;4.57;;;;;;;;;;5071751;28;20609;-43
2021/01/13 13:05:23;;;;;;;10.17;4.97;;;;;;;;;;5070149;28;20178;-44
2021/01/13 13:07:48;;;;;;;6.47;4.40;;;;;;;;;;5072708;28;20641;-43
2021/01/13 13:10:14;;;;;;;7.87;5.37;;;;;;;;;;5071610;28;20178;-43
2021/01/13 13:12:39;;;;;;;4.77;3.87;;;;;;;;;;5070584;28;20171;-44
2021/01/13 13:15:04;;;;;;;9.53;4.97;;;;;;;;;;5064073;28;20649;-43
2021/01/13 13:17:30;;;;;;;7.23;4.37;;;;;;;;;;5066524;28;20210;-43
2021/01/13 13:19:55;;;;;;;7.60;4.53;;;;;;;;;;5071462;28;20160;-44
2021/01/13 13:22:20;;;;;;;5.23;4.73;;;;;;;;;;5071172;28;20221;-42
2021/01/13 13:24:45;;;;;;;10.40;3.90;;;;;;;;;;5069085;28;20205;-43
2021/01/13 13:27:11;;;;;;;8.23;5.43;;;;;;;;;;5070290;28;20593;-42
2021/01/13 13:29:36;;;;;;;5.77;5.03;;;;;;;;;;5065281;28;20728;-42
2021/01/13 13:32:01;;;;;;;8.87;4.73;;;;;;;;;;5070557;28;20233;-43
2021/01/13 13:34:27;;;;;;;6.77;5.33;;;;;;;;;;5069523;28;20265;-43
2021/01/13 13:36:58;;;;;;;6.28;4.60;;;;;;;;;;5070950;28;20249;-43
2021/01/13 13:39:24;;;;;;;6.17;4.53;;;;;;;;;;5070351;28;20174;-43
2021/01/13 13:41:49;;;;;;;6.60;4.70;;;;;;;;;;5071019;28;20687;-43
2021/01/13 13:44:14;;;;;;;6.50;5.07;;;;;;;;;;5071231;28;20716;-43
2021/01/13 13:46:44;;;;;;;7.40;4.63;;;;;;;;;;5066882;28;20653;-43
2021/01/13 13:49:10;;;;;;;4.83;4.40;;;;;;;;;;5070595;28;20171;-43
2021/01/13 13:51:35;;;;;;;5.30;4.47;;;;;;;;;;5070970;28;20607;-42
2021/01/13 13:54:00;;;;;;;4.80;4.35;;;;;;;;;;5070493;28;20246;-43
2021/01/13 13:56:25;;;;;;;8.85;4.70;;;;;;;;;;5063524;28;20611;-43
2021/01/13 13:58:50;;;;;;;7.13;4.40;;;;;;;;;;5061359;28;20183;-43
2021/01/13 14:01:15;;;;;;;5.20;4.47;;;;;;;;;;5069590;28;20538;-43
2021/01/13 14:03:41;;;;;;;4.73;4.33;;;;;;;;;;5067372;28;20243;-43
2021/01/13 14:06:06;;;;;;;6.23;4.67;;;;;;;;;;5047831;28;20506;-43
2021/01/13 14:08:31;;;;;;;5.88;4.22;;;;;;;;;;5070897;28;20236;-42
2021/01/13 14:10:57;;;;;;;7.57;4.40;;;;;;;;;;5068253;28;20179;-42
2021/01/13 14:13:22;;;;;;;6.30;4.17;;;;;;;;;;5070792;28;20230;-43
2021/01/13 14:15:47;;;;;;;6.90;5.05;;;;;;;;;;5070252;28;20592;-42
2021/01/13 14:18:12;;;;;;;6.53;4.67;;;;;;;;;;5088950;28;20202;-43
2021/01/13 14:20:37;;;;;;;7.73;4.20;;;;;;;;;;5076579;28;20183;-43
2021/01/13 14:23:03;;;;;;;5.60;4.33;;;;;;;;;;5070531;28;20203;-43
2021/01/13 14:25:28;;;;;;;5.30;4.73;;;;;;;;;;5069398;28;20602;-43
2021/01/13 14:27:53;;;;;;;6.70;4.90;;;;;;;;;;5070202;28;20187;-43
2021/01/13 14:30:19;;;;;;;6.80;4.50;;;;;;;;;;5068774;28;20187;-43
2021/01/13 14:32:50;;;;;;;5.50;4.90;;;;;;;;;;5070583;28;20634;-43
2021/01/13 14:35:15;;;;;;;5.20;4.67;;;;;;;;;;5066948;28;20656;-43
2021/01/13 14:37:43;;;;;;;5.17;4.10;;;;;;;;;;5070625;28;20640;-43
2021/01/13 14:40:08;;;;;;;7.10;5.10;;;;;;;;;;5069516;28;20178;-43
2021/01/13 14:42:33;;;;;;;5.30;4.80;;;;;;;;;;5066717;28;20612;-44
2021/01/13 14:44:58;;;;;;;5.82;4.28;;;;;;;;;;5065823;28;20180;-44
2021/01/13 14:47:23;;;;;;;4.50;4.10;;;;;;;;;;5070594;28;20369;-43
2021/01/13 14:49:49;;;;;;;5.67;4.33;;;;;;;;;;5059849;28;20195;-44
2021/01/13 14:52:14;;;;;;;5.50;4.97;;;;;;;;;;5068773;28;20180;-44